sensor_id;sensor_type;location;lat;lon;timestamp;P1;durP1;ratioP1;P2;durP2;ratioP2
34242;SDS011;20504;43.214;27.920;2023-07-09T00:02:30;5.40;;;2.15;;
34242;SDS011;20504;43.214;27.920;2023-07-09T00:04:55;4.23;;;2.60;;
34242;SDS011;20504;43.214;27.920;2023-07-09T00:07:31;5.97;;;2.20;;
34242;SDS011;20504;43.214;27.920;2023-07-09T00:09:57;4.70;;;2.25;;
34242;SDS011;20504;43.214;27.920;2023-07-09T00:14:55;4.10;;;2.20;;
34242;SDS011;20504;43.214;27.920;2023-07-09T00:17:32;4.28;;;2.00;;
34242;SDS011;20504;43.214;27.920;2023-07-09T00:19:59;5.20;;;2.17;;
34242;SDS011;20504;43.214;27.920;2023-07-09T00:22:32;4.60;;;2.03;;
34242;SDS011;20504;43.214;27.920;2023-07-09T00:25:04;4.40;;;2.40;;
34242;SDS011;20504;43.214;27.920;2023-07-09T00:27:32;4.28;;;2.30;;
34242;SDS011;20504;43.214;27.920;2023-07-09T00:29:59;2.65;;;2.08;;
34242;SDS011;20504;43.214;27.920;2023-07-09T00:32:28;6.40;;;2.70;;
34242;SDS011;20504;43.214;27.920;2023-07-09T00:35:12;8.27;;;2.75;;
34242;SDS011;20504;43.214;27.920;2023-07-09T00:37:41;8.48;;;3.00;;
34242;SDS011;20504;43.214;27.920;2023-07-09T00:40:24;3.78;;;2.75;;
34242;SDS011;20504;43.214;27.920;2023-07-09T00:42:54;5.43;;;2.75;;
34242;SDS011;20504;43.214;27.920;2023-07-09T00:45:25;5.63;;;2.78;;
34242;SDS011;20504;43.214;27.920;2023-07-09T00:53:04;4.88;;;2.15;;
34242;SDS011;20504;43.214;27.920;2023-07-09T00:55:39;4.97;;;2.85;;
34242;SDS011;20504;43.214;27.920;2023-07-09T00:58:09;3.65;;;2.65;;
34242;SDS011;20504;43.214;27.920;2023-07-09T01:00:51;4.95;;;2.63;;
34242;SDS011;20504;43.214;27.920;2023-07-09T01:03:28;7.10;;;2.45;;
34242;SDS011;20504;43.214;27.920;2023-07-09T01:05:59;11.10;;;3.08;;
34242;SDS011;20504;43.214;27.920;2023-07-09T01:08:32;5.85;;;2.55;;
34242;SDS011;20504;43.214;27.920;2023-07-09T01:11:00;6.28;;;2.40;;
34242;SDS011;20504;43.214;27.920;2023-07-09T01:13:31;5.53;;;2.85;;
34242;SDS011;20504;43.214;27.920;2023-07-09T01:16:05;4.18;;;2.88;;
34242;SDS011;20504;43.214;27.920;2023-07-09T01:18:37;4.18;;;2.85;;
34242;SDS011;20504;43.214;27.920;2023-07-09T01:21:07;3.33;;;2.50;;
34242;SDS011;20504;43.214;27.920;2023-07-09T01:23:40;5.60;;;2.47;;
34242;SDS011;20504;43.214;27.920;2023-07-09T01:26:19;3.90;;;2.30;;
34242;SDS011;20504;43.214;27.920;2023-07-09T01:28:48;5.70;;;2.65;;
34242;SDS011;20504;43.214;27.920;2023-07-09T01:31:22;5.85;;;2.65;;
34242;SDS011;20504;43.214;27.920;2023-07-09T01:33:51;3.25;;;2.78;;
34242;SDS011;20504;43.214;27.920;2023-07-09T01:38:57;5.40;;;2.90;;
34242;SDS011;20504;43.214;27.920;2023-07-09T01:41:22;6.97;;;2.40;;
34242;SDS011;20504;43.214;27.920;2023-07-09T01:46:48;5.07;;;2.42;;
34242;SDS011;20504;43.214;27.920;2023-07-09T01:49:14;3.57;;;2.30;;
34242;SDS011;20504;43.214;27.920;2023-07-09T01:51:40;5.13;;;2.25;;
34242;SDS011;20504;43.214;27.920;2023-07-09T01:54:06;4.35;;;2.50;;
34242;SDS011;20504;43.214;27.920;2023-07-09T01:56:35;7.38;;;2.72;;
34242;SDS011;20504;43.214;27.920;2023-07-09T01:59:03;3.58;;;2.45;;
34242;SDS011;20504;43.214;27.920;2023-07-09T02:01:32;7.45;;;2.28;;
34242;SDS011;20504;43.214;27.920;2023-07-09T02:04:03;5.03;;;2.38;;
34242;SDS011;20504;43.214;27.920;2023-07-09T02:06:29;4.72;;;2.80;;
34242;SDS011;20504;43.214;27.920;2023-07-09T02:08:58;3.78;;;2.28;;
34242;SDS011;20504;43.214;27.920;2023-07-09T02:11:24;5.03;;;2.60;;
34242;SDS011;20504;43.214;27.920;2023-07-09T02:14:02;8.57;;;2.83;;
34242;SDS011;20504;43.214;27.920;2023-07-09T02:16:32;4.78;;;1.83;;
34242;SDS011;20504;43.214;27.920;2023-07-09T02:19:28;5.35;;;2.22;;
34242;SDS011;20504;43.214;27.920;2023-07-09T02:22:14;3.72;;;2.47;;
34242;SDS011;20504;43.214;27.920;2023-07-09T02:24:42;4.43;;;2.53;;
34242;SDS011;20504;43.214;27.920;2023-07-09T02:27:20;3.28;;;2.38;;
34242;SDS011;20504;43.214;27.920;2023-07-09T02:29:48;3.85;;;2.40;;
34242;SDS011;20504;43.214;27.920;2023-07-09T02:32:24;3.70;;;2.00;;
34242;SDS011;20504;43.214;27.920;2023-07-09T02:35:01;6.95;;;2.70;;
34242;SDS011;20504;43.214;27.920;2023-07-09T02:37:54;5.90;;;2.30;;
34242;SDS011;20504;43.214;27.920;2023-07-09T02:40:41;4.15;;;2.92;;
34242;SDS011;20504;43.214;27.920;2023-07-09T02:43:06;7.60;;;2.97;;
34242;SDS011;20504;43.214;27.920;2023-07-09T02:45:33;3.53;;;2.10;;
34242;SDS011;20504;43.214;27.920;2023-07-09T02:47:58;5.13;;;2.45;;
34242;SDS011;20504;43.214;27.920;2023-07-09T02:50:28;3.92;;;2.60;;
34242;SDS011;20504;43.214;27.920;2023-07-09T02:53:02;5.55;;;2.45;;
34242;SDS011;20504;43.214;27.920;2023-07-09T02:55:32;3.22;;;2.20;;
34242;SDS011;20504;43.214;27.920;2023-07-09T02:58:01;6.93;;;2.42;;
34242;SDS011;20504;43.214;27.920;2023-07-09T03:00:30;3.80;;;2.50;;
34242;SDS011;20504;43.214;27.920;2023-07-09T03:02:57;5.53;;;2.28;;
34242;SDS011;20504;43.214;27.920;2023-07-09T03:05:35;3.38;;;2.20;;
34242;SDS011;20504;43.214;27.920;2023-07-09T03:08:03;3.83;;;2.53;;
34242;SDS011;20504;43.214;27.920;2023-07-09T03:10:40;4.00;;;2.45;;
34242;SDS011;20504;43.214;27.920;2023-07-09T03:13:06;7.95;;;3.28;;
34242;SDS011;20504;43.214;27.920;2023-07-09T03:15:43;2.20;;;1.95;;
34242;SDS011;20504;43.214;27.920;2023-07-09T03:18:14;6.45;;;2.80;;
34242;SDS011;20504;43.214;27.920;2023-07-09T03:20:42;4.15;;;2.70;;
34242;SDS011;20504;43.214;27.920;2023-07-09T03:23:11;5.33;;;2.60;;
34242;SDS011;20504;43.214;27.920;2023-07-09T03:25:40;7.50;;;2.78;;
34242;SDS011;20504;43.214;27.920;2023-07-09T03:28:11;4.70;;;2.20;;
34242;SDS011;20504;43.214;27.920;2023-07-09T03:30:42;3.80;;;2.65;;
34242;SDS011;20504;43.214;27.920;2023-07-09T03:33:11;6.80;;;2.75;;
34242;SDS011;20504;43.214;27.920;2023-07-09T03:35:39;2.65;;;2.33;;
34242;SDS011;20504;43.214;27.920;2023-07-09T03:38:07;4.55;;;2.40;;
34242;SDS011;20504;43.214;27.920;2023-07-09T03:40:39;5.15;;;2.50;;
34242;SDS011;20504;43.214;27.920;2023-07-09T03:43:15;4.60;;;2.28;;
34242;SDS011;20504;43.214;27.920;2023-07-09T03:45:40;6.47;;;2.30;;
34242;SDS011;20504;43.214;27.920;2023-07-09T03:48:39;4.72;;;2.10;;
34242;SDS011;20504;43.214;27.920;2023-07-09T03:51:24;8.57;;;2.85;;
34242;SDS011;20504;43.214;27.920;2023-07-09T03:53:49;4.53;;;2.25;;
34242;SDS011;20504;43.214;27.920;2023-07-09T03:59:46;7.85;;;2.78;;
34242;SDS011;20504;43.214;27.920;2023-07-09T04:02:11;4.22;;;2.85;;
34242;SDS011;20504;43.214;27.920;2023-07-09T04:04:38;8.63;;;3.00;;
34242;SDS011;20504;43.214;27.920;2023-07-09T04:07:13;4.25;;;2.92;;
34242;SDS011;20504;43.214;27.920;2023-07-09T04:09:42;7.05;;;2.55;;
34242;SDS011;20504;43.214;27.920;2023-07-09T04:12:10;4.03;;;2.40;;
34242;SDS011;20504;43.214;27.920;2023-07-09T04:14:47;3.47;;;2.50;;
34242;SDS011;20504;43.214;27.920;2023-07-09T04:17:16;7.57;;;2.88;;
34242;SDS011;20504;43.214;27.920;2023-07-09T04:19:41;4.22;;;2.50;;
34242;SDS011;20504;43.214;27.920;2023-07-09T04:22:07;7.67;;;2.93;;
34242;SDS011;20504;43.214;27.920;2023-07-09T04:24:38;6.18;;;2.60;;
34242;SDS011;20504;43.214;27.920;2023-07-09T04:27:14;3.55;;;2.53;;
34242;SDS011;20504;43.214;27.920;2023-07-09T04:29:53;4.40;;;2.70;;
34242;SDS011;20504;43.214;27.920;2023-07-09T04:32:19;5.65;;;2.78;;
34242;SDS011;20504;43.214;27.920;2023-07-09T04:34:47;4.15;;;2.65;;
34242;SDS011;20504;43.214;27.920;2023-07-09T04:37:16;4.70;;;2.85;;
34242;SDS011;20504;43.214;27.920;2023-07-09T04:39:55;3.97;;;2.63;;
34242;SDS011;20504;43.214;27.920;2023-07-09T04:42:56;3.95;;;2.45;;
34242;SDS011;20504;43.214;27.920;2023-07-09T04:45:22;7.38;;;2.67;;
34242;SDS011;20504;43.214;27.920;2023-07-09T04:50:17;6.25;;;2.80;;
34242;SDS011;20504;43.214;27.920;2023-07-09T04:52:42;10.90;;;3.10;;
34242;SDS011;20504;43.214;27.920;2023-07-09T04:55:14;5.50;;;3.30;;
34242;SDS011;20504;43.214;27.920;2023-07-09T04:57:44;4.10;;;3.00;;
34242;SDS011;20504;43.214;27.920;2023-07-09T05:00:11;6.88;;;3.75;;
34242;SDS011;20504;43.214;27.920;2023-07-09T05:02:40;6.68;;;2.97;;
34242;SDS011;20504;43.214;27.920;2023-07-09T05:05:10;5.25;;;2.72;;
34242;SDS011;20504;43.214;27.920;2023-07-09T05:07:49;5.78;;;2.50;;
34242;SDS011;20504;43.214;27.920;2023-07-09T05:10:17;5.53;;;2.78;;
34242;SDS011;20504;43.214;27.920;2023-07-09T05:12:47;4.15;;;2.85;;
34242;SDS011;20504;43.214;27.920;2023-07-09T05:15:20;7.53;;;2.88;;
34242;SDS011;20504;43.214;27.920;2023-07-09T05:17:50;3.80;;;2.35;;
34242;SDS011;20504;43.214;27.920;2023-07-09T05:20:41;8.00;;;2.65;;
34242;SDS011;20504;43.214;27.920;2023-07-09T05:23:11;5.55;;;2.88;;
34242;SDS011;20504;43.214;27.920;2023-07-09T05:25:37;4.07;;;2.40;;
34242;SDS011;20504;43.214;27.920;2023-07-09T05:28:07;8.75;;;2.78;;
34242;SDS011;20504;43.214;27.920;2023-07-09T05:30:42;7.40;;;3.20;;
34242;SDS011;20504;43.214;27.920;2023-07-09T05:33:07;6.40;;;3.60;;
34242;SDS011;20504;43.214;27.920;2023-07-09T05:35:38;7.68;;;3.50;;
34242;SDS011;20504;43.214;27.920;2023-07-09T05:38:04;8.70;;;2.55;;
34242;SDS011;20504;43.214;27.920;2023-07-09T05:41:03;6.93;;;2.70;;
34242;SDS011;20504;43.214;27.920;2023-07-09T05:49:01;5.53;;;2.78;;
34242;SDS011;20504;43.214;27.920;2023-07-09T05:51:27;3.83;;;2.60;;
34242;SDS011;20504;43.214;27.920;2023-07-09T05:53:59;7.28;;;2.72;;
34242;SDS011;20504;43.214;27.920;2023-07-09T05:56:28;6.95;;;3.00;;
34242;SDS011;20504;43.214;27.920;2023-07-09T05:59:01;5.72;;;2.47;;
34242;SDS011;20504;43.214;27.920;2023-07-09T06:01:26;6.50;;;2.90;;
34242;SDS011;20504;43.214;27.920;2023-07-09T06:03:52;3.97;;;3.00;;
34242;SDS011;20504;43.214;27.920;2023-07-09T06:06:19;6.50;;;2.70;;
34242;SDS011;20504;43.214;27.920;2023-07-09T06:09:08;6.65;;;2.72;;
34242;SDS011;20504;43.214;27.920;2023-07-09T06:11:36;5.30;;;2.67;;
34242;SDS011;20504;43.214;27.920;2023-07-09T06:14:01;10.30;;;3.20;;
34242;SDS011;20504;43.214;27.920;2023-07-09T06:16:27;7.75;;;2.90;;
34242;SDS011;20504;43.214;27.920;2023-07-09T06:21:19;5.53;;;2.60;;
34242;SDS011;20504;43.214;27.920;2023-07-09T06:23:45;5.18;;;2.85;;
34242;SDS011;20504;43.214;27.920;2023-07-09T06:26:11;7.47;;;2.85;;
34242;SDS011;20504;43.214;27.920;2023-07-09T06:28:37;3.95;;;3.15;;
34242;SDS011;20504;43.214;27.920;2023-07-09T06:31:03;4.23;;;2.97;;
34242;SDS011;20504;43.214;27.920;2023-07-09T06:33:29;11.25;;;3.65;;
34242;SDS011;20504;43.214;27.920;2023-07-09T06:36:00;8.50;;;3.33;;
34242;SDS011;20504;43.214;27.920;2023-07-09T06:38:31;9.57;;;3.20;;
34242;SDS011;20504;43.214;27.920;2023-07-09T06:40:58;7.05;;;3.15;;
34242;SDS011;20504;43.214;27.920;2023-07-09T06:43:24;7.40;;;3.13;;
34242;SDS011;20504;43.214;27.920;2023-07-09T06:45:51;5.03;;;2.70;;
34242;SDS011;20504;43.214;27.920;2023-07-09T06:48:22;7.53;;;2.72;;
34242;SDS011;20504;43.214;27.920;2023-07-09T06:50:50;5.20;;;3.38;;
34242;SDS011;20504;43.214;27.920;2023-07-09T06:53:21;7.40;;;2.85;;
34242;SDS011;20504;43.214;27.920;2023-07-09T06:55:51;5.15;;;3.15;;
34242;SDS011;20504;43.214;27.920;2023-07-09T06:58:41;9.30;;;2.47;;
34242;SDS011;20504;43.214;27.920;2023-07-09T07:01:08;5.88;;;3.33;;
34242;SDS011;20504;43.214;27.920;2023-07-09T07:03:37;10.68;;;3.38;;
34242;SDS011;20504;43.214;27.920;2023-07-09T07:06:05;11.38;;;3.75;;
34242;SDS011;20504;43.214;27.920;2023-07-09T07:08:33;16.42;;;2.88;;
34242;SDS011;20504;43.214;27.920;2023-07-09T07:11:12;7.78;;;3.30;;
34242;SDS011;20504;43.214;27.920;2023-07-09T07:13:43;12.43;;;3.60;;
34242;SDS011;20504;43.214;27.920;2023-07-09T07:16:15;10.05;;;3.20;;
34242;SDS011;20504;43.214;27.920;2023-07-09T07:21:26;12.82;;;3.65;;
34242;SDS011;20504;43.214;27.920;2023-07-09T07:24:15;11.33;;;3.37;;
34242;SDS011;20504;43.214;27.920;2023-07-09T07:27:08;7.15;;;3.28;;
34242;SDS011;20504;43.214;27.920;2023-07-09T07:29:37;5.53;;;3.22;;
34242;SDS011;20504;43.214;27.920;2023-07-09T07:32:04;13.88;;;3.60;;
34242;SDS011;20504;43.214;27.920;2023-07-09T07:34:30;5.90;;;3.22;;
34242;SDS011;20504;43.214;27.920;2023-07-09T07:36:57;11.38;;;3.45;;
34242;SDS011;20504;43.214;27.920;2023-07-09T07:39:29;8.65;;;2.92;;
34242;SDS011;20504;43.214;27.920;2023-07-09T07:41:59;4.35;;;3.25;;
34242;SDS011;20504;43.214;27.920;2023-07-09T07:44:28;8.43;;;3.85;;
34242;SDS011;20504;43.214;27.920;2023-07-09T07:47:00;11.23;;;3.30;;
34242;SDS011;20504;43.214;27.920;2023-07-09T07:50:07;15.93;;;3.70;;
34242;SDS011;20504;43.214;27.920;2023-07-09T07:52:57;8.90;;;4.05;;
34242;SDS011;20504;43.214;27.920;2023-07-09T07:56:02;8.30;;;3.10;;
34242;SDS011;20504;43.214;27.920;2023-07-09T07:58:47;9.98;;;3.50;;
34242;SDS011;20504;43.214;27.920;2023-07-09T08:01:46;11.13;;;3.70;;
34242;SDS011;20504;43.214;27.920;2023-07-09T08:24:52;11.57;;;3.60;;
34242;SDS011;20504;43.214;27.920;2023-07-09T08:36:02;9.88;;;3.28;;
34242;SDS011;20504;43.214;27.920;2023-07-09T08:38:39;10.50;;;3.38;;
34242;SDS011;20504;43.214;27.920;2023-07-09T08:46:54;7.13;;;3.13;;
34242;SDS011;20504;43.214;27.920;2023-07-09T08:49:56;9.30;;;2.90;;
34242;SDS011;20504;43.214;27.920;2023-07-09T08:52:28;6.15;;;3.03;;
34242;SDS011;20504;43.214;27.920;2023-07-09T08:55:34;9.07;;;3.22;;
34242;SDS011;20504;43.214;27.920;2023-07-09T08:58:01;7.47;;;2.60;;
34242;SDS011;20504;43.214;27.920;2023-07-09T09:03:46;13.47;;;3.10;;
34242;SDS011;20504;43.214;27.920;2023-07-09T09:06:30;7.82;;;3.40;;
34242;SDS011;20504;43.214;27.920;2023-07-09T09:12:38;8.63;;;3.08;;
34242;SDS011;20504;43.214;27.920;2023-07-09T09:15:16;8.65;;;3.03;;
34242;SDS011;20504;43.214;27.920;2023-07-09T09:17:46;14.95;;;3.22;;
34242;SDS011;20504;43.214;27.920;2023-07-09T09:20:28;9.05;;;2.92;;
34242;SDS011;20504;43.214;27.920;2023-07-09T09:23:12;8.10;;;2.58;;
34242;SDS011;20504;43.214;27.920;2023-07-09T09:25:52;5.50;;;2.38;;
34242;SDS011;20504;43.214;27.920;2023-07-09T09:28:45;6.43;;;3.17;;
34242;SDS011;20504;43.214;27.920;2023-07-09T09:31:12;9.07;;;3.20;;
34242;SDS011;20504;43.214;27.920;2023-07-09T09:33:44;6.07;;;2.90;;
34242;SDS011;20504;43.214;27.920;2023-07-09T09:36:19;14.50;;;3.13;;
34242;SDS011;20504;43.214;27.920;2023-07-09T09:39:08;5.22;;;3.10;;
34242;SDS011;20504;43.214;27.920;2023-07-09T09:41:36;11.07;;;3.10;;
34242;SDS011;20504;43.214;27.920;2023-07-09T09:44:14;11.48;;;3.60;;
34242;SDS011;20504;43.214;27.920;2023-07-09T09:46:51;6.25;;;3.05;;
34242;SDS011;20504;43.214;27.920;2023-07-09T09:49:26;7.22;;;2.78;;
34242;SDS011;20504;43.214;27.920;2023-07-09T09:52:01;4.85;;;2.90;;
34242;SDS011;20504;43.214;27.920;2023-07-09T09:54:27;7.28;;;3.55;;
34242;SDS011;20504;43.214;27.920;2023-07-09T09:56:55;7.47;;;2.88;;
34242;SDS011;20504;43.214;27.920;2023-07-09T09:59:32;8.33;;;2.83;;
34242;SDS011;20504;43.214;27.920;2023-07-09T10:02:23;8.15;;;3.35;;
34242;SDS011;20504;43.214;27.920;2023-07-09T10:05:04;7.00;;;3.05;;
34242;SDS011;20504;43.214;27.920;2023-07-09T10:07:37;10.93;;;2.80;;
34242;SDS011;20504;43.214;27.920;2023-07-09T10:10:23;7.80;;;3.03;;
34242;SDS011;20504;43.214;27.920;2023-07-09T10:13:05;7.80;;;3.05;;
34242;SDS011;20504;43.214;27.920;2023-07-09T10:15:42;6.95;;;2.83;;
34242;SDS011;20504;43.214;27.920;2023-07-09T10:18:29;7.75;;;2.92;;
34242;SDS011;20504;43.214;27.920;2023-07-09T10:21:28;4.30;;;2.75;;
34242;SDS011;20504;43.214;27.920;2023-07-09T10:40:33;11.85;;;5.47;;
34242;SDS011;20504;43.214;27.920;2023-07-09T10:43:12;11.63;;;4.57;;
34242;SDS011;20504;43.214;27.920;2023-07-09T10:45:48;6.50;;;4.20;;
34242;SDS011;20504;43.214;27.920;2023-07-09T10:51:04;7.13;;;3.58;;
34242;SDS011;20504;43.214;27.920;2023-07-09T10:57:35;7.20;;;3.10;;
34242;SDS011;20504;43.214;27.920;2023-07-09T11:00:20;5.95;;;3.75;;
34242;SDS011;20504;43.214;27.920;2023-07-09T11:02:58;11.15;;;4.22;;
34242;SDS011;20504;43.214;27.920;2023-07-09T11:08:24;7.88;;;3.00;;
34242;SDS011;20504;43.214;27.920;2023-07-09T11:11:14;11.35;;;2.97;;
34242;SDS011;20504;43.214;27.920;2023-07-09T11:16:39;8.13;;;3.08;;
34242;SDS011;20504;43.214;27.920;2023-07-09T11:19:42;6.35;;;3.35;;
34242;SDS011;20504;43.214;27.920;2023-07-09T11:22:20;8.25;;;3.65;;
34242;SDS011;20504;43.214;27.920;2023-07-09T11:24:53;15.00;;;3.45;;
34242;SDS011;20504;43.214;27.920;2023-07-09T11:27:50;5.25;;;3.25;;
34242;SDS011;20504;43.214;27.920;2023-07-09T11:30:29;4.53;;;2.90;;
34242;SDS011;20504;43.214;27.920;2023-07-09T11:36:14;7.38;;;3.55;;
34242;SDS011;20504;43.214;27.920;2023-07-09T11:38:50;8.15;;;3.47;;
34242;SDS011;20504;43.214;27.920;2023-07-09T11:44:28;4.18;;;3.20;;
34242;SDS011;20504;43.214;27.920;2023-07-09T11:57:38;6.60;;;3.00;;
34242;SDS011;20504;43.214;27.920;2023-07-09T12:02:36;6.50;;;2.90;;
34242;SDS011;20504;43.214;27.920;2023-07-09T12:05:03;10.20;;;3.20;;
34242;SDS011;20504;43.214;27.920;2023-07-09T12:12:41;6.90;;;2.63;;
34242;SDS011;20504;43.214;27.920;2023-07-09T12:15:29;5.55;;;2.83;;
34242;SDS011;20504;43.214;27.920;2023-07-09T12:18:01;5.40;;;2.90;;
34242;SDS011;20504;43.214;27.920;2023-07-09T12:20:33;4.68;;;2.92;;
34242;SDS011;20504;43.214;27.920;2023-07-09T12:26:19;5.60;;;2.92;;
34242;SDS011;20504;43.214;27.920;2023-07-09T12:40:47;8.70;;;3.45;;
34242;SDS011;20504;43.214;27.920;2023-07-09T12:49:39;6.30;;;2.72;;
34242;SDS011;20504;43.214;27.920;2023-07-09T12:52:10;7.45;;;2.90;;
34242;SDS011;20504;43.214;27.920;2023-07-09T12:54:41;9.18;;;2.95;;
34242;SDS011;20504;43.214;27.920;2023-07-09T12:57:13;6.72;;;2.67;;
34242;SDS011;20504;43.214;27.920;2023-07-09T12:59:45;6.63;;;2.95;;
34242;SDS011;20504;43.214;27.920;2023-07-09T13:04:42;5.93;;;2.83;;
34242;SDS011;20504;43.214;27.920;2023-07-09T13:10:27;10.65;;;2.80;;
34242;SDS011;20504;43.214;27.920;2023-07-09T13:12:56;7.22;;;2.90;;
34242;SDS011;20504;43.214;27.920;2023-07-09T13:15:42;3.92;;;2.88;;
34242;SDS011;20504;43.214;27.920;2023-07-09T14:07:38;4.95;;;2.97;;
34242;SDS011;20504;43.214;27.920;2023-07-09T14:15:51;9.43;;;3.10;;
34242;SDS011;20504;43.214;27.920;2023-07-09T14:41:29;5.75;;;2.92;;
34242;SDS011;20504;43.214;27.920;2023-07-09T14:43:57;6.57;;;2.90;;
34242;SDS011;20504;43.214;27.920;2023-07-09T14:46:23;12.82;;;3.40;;
34242;SDS011;20504;43.214;27.920;2023-07-09T14:48:49;5.60;;;2.88;;
34242;SDS011;20504;43.214;27.920;2023-07-09T14:51:16;4.57;;;2.80;;
34242;SDS011;20504;43.214;27.920;2023-07-09T14:56:15;8.65;;;2.97;;
34242;SDS011;20504;43.214;27.920;2023-07-09T15:01:13;7.93;;;4.10;;
34242;SDS011;20504;43.214;27.920;2023-07-09T15:14:42;5.18;;;3.00;;
34242;SDS011;20504;43.214;27.920;2023-07-09T15:17:18;8.40;;;2.80;;
34242;SDS011;20504;43.214;27.920;2023-07-09T15:19:43;5.80;;;3.00;;
34242;SDS011;20504;43.214;27.920;2023-07-09T15:22:16;4.38;;;2.70;;
34242;SDS011;20504;43.214;27.920;2023-07-09T15:24:48;5.85;;;3.35;;
34242;SDS011;20504;43.214;27.920;2023-07-09T15:27:13;5.50;;;3.05;;
34242;SDS011;20504;43.214;27.920;2023-07-09T15:29:39;6.63;;;2.83;;
34242;SDS011;20504;43.214;27.920;2023-07-09T15:32:04;6.15;;;3.47;;
34242;SDS011;20504;43.214;27.920;2023-07-09T15:34:31;3.83;;;2.65;;
34242;SDS011;20504;43.214;27.920;2023-07-09T15:36:56;7.57;;;3.33;;
34242;SDS011;20504;43.214;27.920;2023-07-09T15:41:48;10.68;;;6.93;;
34242;SDS011;20504;43.214;27.920;2023-07-09T15:44:14;11.32;;;6.50;;
34242;SDS011;20504;43.214;27.920;2023-07-09T15:46:44;7.88;;;5.25;;
34242;SDS011;20504;43.214;27.920;2023-07-09T15:49:15;11.85;;;3.80;;
34242;SDS011;20504;43.214;27.920;2023-07-09T15:51:54;5.72;;;3.22;;
34242;SDS011;20504;43.214;27.920;2023-07-09T15:54:20;8.15;;;3.72;;
34242;SDS011;20504;43.214;27.920;2023-07-09T15:56:48;8.57;;;5.75;;
34242;SDS011;20504;43.214;27.920;2023-07-09T16:01:59;10.02;;;6.72;;
34242;SDS011;20504;43.214;27.920;2023-07-09T16:04:26;9.18;;;5.03;;
34242;SDS011;20504;43.214;27.920;2023-07-09T16:07:00;10.48;;;4.00;;
34242;SDS011;20504;43.214;27.920;2023-07-09T16:12:07;24.40;;;13.75;;
34242;SDS011;20504;43.214;27.920;2023-07-09T16:14:55;16.55;;;9.55;;
34242;SDS011;20504;43.214;27.920;2023-07-09T16:17:37;29.65;;;15.50;;
34242;SDS011;20504;43.214;27.920;2023-07-09T16:20:06;14.85;;;5.85;;
34242;SDS011;20504;43.214;27.920;2023-07-09T16:25:17;11.35;;;5.55;;
34242;SDS011;20504;43.214;27.920;2023-07-09T16:28:51;7.78;;;4.30;;
34242;SDS011;20504;43.214;27.920;2023-07-09T16:34:46;7.47;;;4.65;;
34242;SDS011;20504;43.214;27.920;2023-07-09T16:40:51;8.27;;;4.65;;
34242;SDS011;20504;43.214;27.920;2023-07-09T16:43:53;12.35;;;5.10;;
34242;SDS011;20504;43.214;27.920;2023-07-09T16:49:31;12.07;;;5.20;;
34242;SDS011;20504;43.214;27.920;2023-07-09T16:52:35;9.38;;;4.20;;
34242;SDS011;20504;43.214;27.920;2023-07-09T16:55:14;7.20;;;5.00;;
34242;SDS011;20504;43.214;27.920;2023-07-09T17:07:57;8.95;;;4.57;;
34242;SDS011;20504;43.214;27.920;2023-07-09T17:14:29;7.97;;;5.13;;
34242;SDS011;20504;43.214;27.920;2023-07-09T17:25:01;10.90;;;5.10;;
34242;SDS011;20504;43.214;27.920;2023-07-09T17:32:53;11.32;;;5.43;;
34242;SDS011;20504;43.214;27.920;2023-07-09T17:36:42;13.32;;;5.28;;
34242;SDS011;20504;43.214;27.920;2023-07-09T17:50:12;8.73;;;4.68;;
34242;SDS011;20504;43.214;27.920;2023-07-09T18:04:23;11.75;;;5.05;;
34242;SDS011;20504;43.214;27.920;2023-07-09T18:07:39;10.73;;;5.47;;
34242;SDS011;20504;43.214;27.920;2023-07-09T19:31:11;13.93;;;5.88;;
34242;SDS011;20504;43.214;27.920;2023-07-09T20:13:57;5.22;;;3.63;;
34242;SDS011;20504;43.214;27.920;2023-07-09T20:16:28;6.88;;;3.60;;
34242;SDS011;20504;43.214;27.920;2023-07-09T20:18:54;8.07;;;3.85;;
34242;SDS011;20504;43.214;27.920;2023-07-09T20:21:21;7.45;;;3.97;;
34242;SDS011;20504;43.214;27.920;2023-07-09T20:23:52;11.68;;;3.92;;
34242;SDS011;20504;43.214;27.920;2023-07-09T20:26:18;8.90;;;3.60;;
34242;SDS011;20504;43.214;27.920;2023-07-09T20:28:46;8.00;;;4.03;;
34242;SDS011;20504;43.214;27.920;2023-07-09T20:31:17;8.20;;;3.88;;
34242;SDS011;20504;43.214;27.920;2023-07-09T20:33:45;6.53;;;3.97;;
34242;SDS011;20504;43.214;27.920;2023-07-09T20:36:11;10.30;;;3.80;;
34242;SDS011;20504;43.214;27.920;2023-07-09T20:38:39;6.43;;;4.07;;
34242;SDS011;20504;43.214;27.920;2023-07-09T20:41:15;8.07;;;4.70;;
34242;SDS011;20504;43.214;27.920;2023-07-09T20:43:43;6.07;;;3.78;;
34242;SDS011;20504;43.214;27.920;2023-07-09T20:46:10;11.88;;;4.50;;
34242;SDS011;20504;43.214;27.920;2023-07-09T20:48:44;6.60;;;3.60;;
34242;SDS011;20504;43.214;27.920;2023-07-09T20:51:11;9.93;;;3.40;;
34242;SDS011;20504;43.214;27.920;2023-07-09T20:53:37;13.40;;;4.07;;
34242;SDS011;20504;43.214;27.920;2023-07-09T20:56:11;5.55;;;3.42;;
34242;SDS011;20504;43.214;27.920;2023-07-09T20:58:55;11.60;;;4.07;;
34242;SDS011;20504;43.214;27.920;2023-07-09T21:01:44;14.80;;;4.03;;
34242;SDS011;20504;43.214;27.920;2023-07-09T21:09:49;9.35;;;3.80;;
34242;SDS011;20504;43.214;27.920;2023-07-09T21:12:27;10.82;;;3.63;;
34242;SDS011;20504;43.214;27.920;2023-07-09T21:15:08;5.30;;;3.10;;
34242;SDS011;20504;43.214;27.920;2023-07-09T21:18:18;12.20;;;4.32;;
34242;SDS011;20504;43.214;27.920;2023-07-09T21:26:32;4.78;;;3.40;;
34242;SDS011;20504;43.214;27.920;2023-07-09T21:34:17;8.35;;;3.35;;
34242;SDS011;20504;43.214;27.920;2023-07-09T21:40:59;9.90;;;4.05;;
34242;SDS011;20504;43.214;27.920;2023-07-09T21:48:52;7.47;;;4.32;;
34242;SDS011;20504;43.214;27.920;2023-07-09T21:51:33;9.52;;;3.53;;
34242;SDS011;20504;43.214;27.920;2023-07-09T21:53:58;9.27;;;3.33;;
34242;SDS011;20504;43.214;27.920;2023-07-09T21:56:24;8.70;;;3.60;;
34242;SDS011;20504;43.214;27.920;2023-07-09T21:58:55;6.10;;;3.70;;
34242;SDS011;20504;43.214;27.920;2023-07-09T22:01:21;12.10;;;4.68;;
34242;SDS011;20504;43.214;27.920;2023-07-09T22:03:49;11.23;;;4.85;;
